createdAt,value
2023-05-25T00:01:59.582Z,7.41
2023-05-25T00:04:30.625Z,7.57
2023-05-25T00:06:59.194Z,7.23
2023-05-25T00:09:27.773Z,7.39
2023-05-25T00:11:56.373Z,7.52
2023-05-25T00:14:24.858Z,7.55
2023-05-25T00:16:53.255Z,7.49
2023-05-25T00:19:23.453Z,7.55
2023-05-25T00:21:52.377Z,7.58
2023-05-25T00:24:20.883Z,7.20
2023-05-25T00:26:49.243Z,7.57
2023-05-25T00:29:17.661Z,7.37
2023-05-25T00:31:46.085Z,7.22
2023-05-25T00:34:14.394Z,7.26
2023-05-25T00:36:48.282Z,7.39
2023-05-25T00:39:16.774Z,7.44
2023-05-25T00:41:47.055Z,7.30
2023-05-25T00:44:21.337Z,7.35
2023-05-25T00:46:52.086Z,7.32
2023-05-25T00:49:23.254Z,7.17
2023-05-25T00:51:54.322Z,7.04
2023-05-25T00:54:22.744Z,6.75
2023-05-25T00:56:54.550Z,7.08
2023-05-25T00:59:31.332Z,7.03
2023-05-25T01:02:04.742Z,6.92
2023-05-25T01:04:37.154Z,7.06
2023-05-25T01:07:11.438Z,6.82
2023-05-25T01:09:42.991Z,6.83
2023-05-25T01:12:12.050Z,7.11
2023-05-25T01:14:42.768Z,7.04
2023-05-25T01:17:11.900Z,7.05
2023-05-25T01:19:41.465Z,7.00
2023-05-25T01:22:21.228Z,6.75
2023-05-25T01:24:54.539Z,6.82
2023-05-25T01:27:32.585Z,6.98
2023-05-25T01:30:03.432Z,6.95
2023-05-25T01:32:34.918Z,6.95
2023-05-25T01:35:05.082Z,6.97
2023-05-25T01:37:37.558Z,6.89
2023-05-25T01:40:06.777Z,6.87
2023-05-25T01:42:35.028Z,6.96
2023-05-25T01:45:07.903Z,6.74
2023-05-25T01:47:47.945Z,6.80
2023-05-25T01:50:25.212Z,6.77
2023-05-25T01:53:03.776Z,6.86
2023-05-25T01:55:38.906Z,6.55
2023-05-25T01:58:10.722Z,6.78
2023-05-25T02:00:41.662Z,6.55
2023-05-25T02:03:14.092Z,6.42
2023-05-25T02:05:45.097Z,6.57
2023-05-25T02:08:14.981Z,6.39
2023-05-25T02:10:46.255Z,6.49
2023-05-25T02:13:14.739Z,6.48
2023-05-25T02:15:44.270Z,6.32
2023-05-25T02:18:13.780Z,6.26
2023-05-25T02:20:42.180Z,6.26
2023-05-25T02:23:10.596Z,6.40
2023-05-25T02:25:42.759Z,6.34
2023-05-25T02:28:11.625Z,6.30
2023-05-25T02:30:40.487Z,6.19
2023-05-25T02:33:09.146Z,6.18
2023-05-25T02:35:38.323Z,6.27
2023-05-25T02:38:07.521Z,6.25
2023-05-25T02:40:35.871Z,6.01
2023-05-25T02:43:05.711Z,6.22
2023-05-25T02:45:34.402Z,5.71
2023-05-25T02:48:02.816Z,5.98
2023-05-25T02:50:34.119Z,6.13
2023-05-25T02:53:06.724Z,6.18
2023-05-25T02:55:34.913Z,6.23
2023-05-25T02:58:05.258Z,6.15
2023-05-25T03:00:54.674Z,6.23
2023-05-25T03:03:23.158Z,6.23
2023-05-25T03:05:51.834Z,6.27
2023-05-25T03:08:20.219Z,6.17
2023-05-25T03:10:49.440Z,5.90
2023-05-25T03:13:20.160Z,6.15
2023-05-25T03:15:48.512Z,6.20
2023-05-25T03:18:17.457Z,6.14
2023-05-25T03:20:45.839Z,5.91
2023-05-25T03:23:14.687Z,6.19
2023-05-25T03:25:43.377Z,6.08
2023-05-25T03:28:11.987Z,5.77
2023-05-25T03:30:42.135Z,6.14
2023-05-25T03:33:13.836Z,6.07
2023-05-25T03:35:46.483Z,6.16
2023-05-25T03:38:14.911Z,5.94
2023-05-25T03:40:43.919Z,6.09
2023-05-25T03:43:12.225Z,5.81
2023-05-25T03:45:42.221Z,5.65
2023-05-25T03:48:11.854Z,5.96
2023-05-25T03:50:40.923Z,5.92
2023-05-25T03:53:09.640Z,5.91
2023-05-25T03:55:38.062Z,5.86
2023-05-25T03:58:07.009Z,5.71
2023-05-25T04:00:35.340Z,6.01
2023-05-25T04:03:06.942Z,6.05
2023-05-25T04:05:35.320Z,6.06
2023-05-25T04:08:03.578Z,6.00
2023-05-25T04:10:31.994Z,6.06
2023-05-25T04:13:00.992Z,5.74
2023-05-25T04:15:30.470Z,5.99
2023-05-25T04:18:07.466Z,6.06
2023-05-25T04:20:36.812Z,6.15
2023-05-25T04:23:06.181Z,5.82
2023-05-25T04:25:35.285Z,6.26
2023-05-25T04:28:03.843Z,6.05
2023-05-25T04:31:01.755Z,6.34
2023-05-25T04:33:45.563Z,6.36
2023-05-25T04:36:18.730Z,6.36
2023-05-25T04:38:47.965Z,6.47
2023-05-25T04:41:16.525Z,6.32
2023-05-25T04:44:05.636Z,6.60
2023-05-25T04:46:39.070Z,6.67
2023-05-25T04:49:09.967Z,6.68
2023-05-25T04:51:38.432Z,6.43
2023-05-25T04:54:10.560Z,6.31
2023-05-25T04:56:40.356Z,6.59
2023-05-25T04:59:08.652Z,6.59
2023-05-25T05:01:40.873Z,6.41
2023-05-25T05:04:12.405Z,6.49
2023-05-25T05:06:40.830Z,6.57
2023-05-25T05:09:10.473Z,6.57
2023-05-25T05:11:38.753Z,6.48
2023-05-25T05:14:09.912Z,6.57
2023-05-25T05:16:38.272Z,6.61
2023-05-25T05:19:06.612Z,6.52
2023-05-25T05:21:36.349Z,6.44
2023-05-25T05:24:07.576Z,6.61
2023-05-25T05:26:48.153Z,6.66
2023-05-25T05:29:28.690Z,6.76
2023-05-25T05:31:57.498Z,6.90
2023-05-25T05:34:26.867Z,6.86
2023-05-25T05:36:58.437Z,7.08
2023-05-25T05:39:29.063Z,7.00
2023-05-25T05:41:57.553Z,7.29
2023-05-25T05:44:29.054Z,7.18
2023-05-25T05:47:01.543Z,7.52
2023-05-25T05:49:31.696Z,7.49
2023-05-25T05:52:06.996Z,7.35
2023-05-25T05:54:35.953Z,7.47
2023-05-25T05:57:09.535Z,7.68
2023-05-25T05:59:37.802Z,7.98
2023-05-25T06:02:07.443Z,8.03
2023-05-25T06:04:35.879Z,8.10
2023-05-25T06:07:06.351Z,8.11
2023-05-25T06:09:34.719Z,8.12
2023-05-25T06:12:03.592Z,8.18
2023-05-25T06:14:32.134Z,8.27
2023-05-25T06:17:03.495Z,8.53
2023-05-25T06:19:32.107Z,8.61
2023-05-25T06:22:00.563Z,8.52
2023-05-25T06:24:31.303Z,8.53
2023-05-25T06:26:59.555Z,8.53
2023-05-25T06:29:27.846Z,8.78
2023-05-25T06:31:56.228Z,8.77
2023-05-25T06:34:25.998Z,8.96
2023-05-25T06:36:54.844Z,8.94
2023-05-25T06:39:23.484Z,9.23
2023-05-25T06:41:53.993Z,9.41
2023-05-25T06:44:31.834Z,9.34
2023-05-25T06:47:03.740Z,9.68
2023-05-25T06:49:32.770Z,9.63
2023-05-25T06:52:01.052Z,9.99
2023-05-25T06:54:29.373Z,9.86
2023-05-25T06:56:58.969Z,9.94
2023-05-25T06:59:27.216Z,9.79
2023-05-25T07:01:56.495Z,9.87
2023-05-25T07:04:24.885Z,9.95
2023-05-25T07:06:53.248Z,10.10
2023-05-25T07:09:21.856Z,10.11
2023-05-25T07:11:50.084Z,10.23
2023-05-25T07:14:19.911Z,10.12
2023-05-25T07:16:48.298Z,10.31
2023-05-25T07:19:16.595Z,10.24
2023-05-25T07:21:44.850Z,10.33
2023-05-25T07:24:13.066Z,10.26
2023-05-25T07:26:41.314Z,10.10
2023-05-25T07:29:09.633Z,10.54
2023-05-25T07:31:39.564Z,10.82
2023-05-25T07:34:08.046Z,11.14
2023-05-25T07:36:36.407Z,11.32
2023-05-25T07:39:05.022Z,11.52
2023-05-25T07:41:33.764Z,11.69
2023-05-25T07:44:02.038Z,11.94
2023-05-25T07:46:30.571Z,12.12
2023-05-25T07:49:00.398Z,12.38
2023-05-25T07:51:31.241Z,12.23
2023-05-25T07:53:59.524Z,12.39
2023-05-25T07:56:28.828Z,13.13
2023-05-25T07:58:58.047Z,13.80
2023-05-25T08:01:27.157Z,14.44
2023-05-25T08:03:55.737Z,14.98
2023-05-25T08:06:25.863Z,15.60
2023-05-25T08:08:54.165Z,15.47
2023-05-25T08:11:26.381Z,15.91
2023-05-25T08:13:54.636Z,16.25
2023-05-25T08:16:22.974Z,16.79
2023-05-25T08:18:51.463Z,16.95
2023-05-25T08:21:19.830Z,17.34
2023-05-25T08:23:50.741Z,18.14
2023-05-25T08:26:37.940Z,18.45
2023-05-25T08:29:07.877Z,17.66
2023-05-25T08:31:37.383Z,17.51
2023-05-25T08:34:05.726Z,16.80
2023-05-25T08:36:36.076Z,16.19
2023-05-25T08:39:08.228Z,15.83
2023-05-25T08:41:38.056Z,15.81
2023-05-25T08:44:08.785Z,15.80
2023-05-25T08:46:37.437Z,15.77
2023-05-25T08:49:11.621Z,15.95
2023-05-25T08:51:46.412Z,15.39
2023-05-25T08:54:19.367Z,15.80
2023-05-25T08:56:52.299Z,16.52
2023-05-25T08:59:36.846Z,16.51
2023-05-25T09:02:31.456Z,17.31
2023-05-25T09:05:01.343Z,17.73
2023-05-25T09:07:32.270Z,17.30
2023-05-25T09:10:03.193Z,17.38
2023-05-25T09:12:32.426Z,17.16
2023-05-25T09:15:01.096Z,17.03
2023-05-25T09:17:29.894Z,16.74
2023-05-25T09:19:58.436Z,17.16
2023-05-25T09:22:26.881Z,17.40
2023-05-25T09:24:55.598Z,17.37
2023-05-25T09:27:25.368Z,17.46
2023-05-25T09:29:53.947Z,16.53
2023-05-25T09:32:22.439Z,16.89
2023-05-25T09:34:51.374Z,17.40
2023-05-25T09:37:20.086Z,18.16
2023-05-25T09:39:49.172Z,18.46
2023-05-25T09:42:18.162Z,18.98
2023-05-25T09:44:47.768Z,19.51
2023-05-25T09:47:17.063Z,19.60
2023-05-25T09:49:47.594Z,19.63
2023-05-25T09:52:17.550Z,19.23
2023-05-25T09:54:46.891Z,19.61
2023-05-25T09:57:16.144Z,20.16
2023-05-25T09:59:45.590Z,20.48
2023-05-25T10:02:16.279Z,19.40
2023-05-25T10:04:46.414Z,18.84
2023-05-25T10:07:16.110Z,18.58
2023-05-25T10:09:48.481Z,18.32
2023-05-25T10:12:20.908Z,17.83
2023-05-25T10:14:54.422Z,17.24
2023-05-25T10:17:25.671Z,16.99
2023-05-25T10:19:58.629Z,16.52
2023-05-25T10:22:33.616Z,16.73
2023-05-25T10:25:14.905Z,16.63
2023-05-25T10:27:48.931Z,16.58
2023-05-25T10:30:17.259Z,16.59
2023-05-25T10:32:50.305Z,16.87
2023-05-25T10:35:20.616Z,17.42
2023-05-25T10:37:52.246Z,17.81
2023-05-25T10:40:22.802Z,18.10
2023-05-25T10:42:51.805Z,18.45
2023-05-25T10:45:21.034Z,19.01
2023-05-25T10:47:51.282Z,19.30
2023-05-25T10:50:26.270Z,19.97
2023-05-25T10:53:02.383Z,20.41
2023-05-25T10:55:42.863Z,20.97
2023-05-25T10:58:13.805Z,21.66
2023-05-25T11:00:44.933Z,21.93
2023-05-25T11:03:14.647Z,22.29
2023-05-25T11:05:51.245Z,22.29
2023-05-25T11:08:23.624Z,22.21
2023-05-25T11:10:55.221Z,22.40
2023-05-25T11:13:41.340Z,22.20
2023-05-25T11:16:24.757Z,21.70
2023-05-25T11:18:58.623Z,21.74
2023-05-25T11:21:45.992Z,21.76
2023-05-25T11:24:17.238Z,22.03
2023-05-25T11:27:01.560Z,22.32
2023-05-25T11:29:33.364Z,22.45
2023-05-25T11:32:03.012Z,22.88
2023-05-25T11:34:33.421Z,22.45
2023-05-25T11:37:04.841Z,21.44
2023-05-25T11:39:33.394Z,21.02
2023-05-25T11:42:07.078Z,21.54
2023-05-25T11:44:38.058Z,21.23
2023-05-25T11:47:13.469Z,21.43
2023-05-25T11:49:46.298Z,20.84
2023-05-25T11:52:16.168Z,20.60
2023-05-25T11:54:45.535Z,20.50
2023-05-25T11:57:19.076Z,20.20
2023-05-25T11:59:51.563Z,20.05
2023-05-25T12:02:20.601Z,19.56
2023-05-25T12:04:57.781Z,19.48
2023-05-25T12:07:28.400Z,19.65
2023-05-25T12:10:07.685Z,19.43
2023-05-25T12:12:41.624Z,19.46
2023-05-25T12:15:12.600Z,19.37
2023-05-25T12:17:44.034Z,19.25
2023-05-25T12:20:15.343Z,19.27
2023-05-25T12:22:45.123Z,19.58
2023-05-25T12:25:15.954Z,19.14
2023-05-25T12:27:44.485Z,18.78
2023-05-25T12:30:13.072Z,19.18
2023-05-25T12:33:03.773Z,19.04
2023-05-25T12:35:47.572Z,18.31
2023-05-25T12:38:18.558Z,18.57
2023-05-25T12:40:47.120Z,19.02
2023-05-25T12:43:17.618Z,19.27
2023-05-25T12:45:46.158Z,19.60
2023-05-25T12:48:14.516Z,19.98
2023-05-25T12:50:59.307Z,19.64
2023-05-25T12:53:29.081Z,20.25
2023-05-25T12:56:04.637Z,20.16
2023-05-25T12:58:32.977Z,20.26
2023-05-25T13:01:01.455Z,20.04
2023-05-25T13:03:32.305Z,19.35
2023-05-25T13:06:06.229Z,18.90
2023-05-25T13:08:34.656Z,18.78
2023-05-25T13:11:03.720Z,19.09
2023-05-25T13:13:32.047Z,19.62
2023-05-25T13:16:00.399Z,20.13
2023-05-25T13:18:28.635Z,20.31
2023-05-25T13:20:57.557Z,20.48
2023-05-25T13:23:27.542Z,20.54
2023-05-25T13:25:55.924Z,19.86
2023-05-25T13:28:24.246Z,19.83
2023-05-25T13:30:52.728Z,19.94
2023-05-25T13:33:21.690Z,19.65
2023-05-25T13:35:59.276Z,19.86
2023-05-25T13:38:29.653Z,19.50
2023-05-25T13:40:58.269Z,19.99
2023-05-25T13:43:26.711Z,20.28
2023-05-25T13:45:55.617Z,20.36
2023-05-25T13:48:24.230Z,20.07
2023-05-25T13:50:52.553Z,20.13
2023-05-25T13:53:20.747Z,20.46
2023-05-25T13:55:50.386Z,20.51
2023-05-25T13:58:18.788Z,20.53
2023-05-25T14:00:47.516Z,19.98
2023-05-25T14:03:15.905Z,19.84
2023-05-25T14:05:46.879Z,19.78
2023-05-25T14:08:15.792Z,19.20
2023-05-25T14:10:44.522Z,19.31
2023-05-25T14:13:14.416Z,19.63
2023-05-25T14:15:43.070Z,19.50
2023-05-25T14:18:11.822Z,19.01
2023-05-25T14:20:41.272Z,18.84
2023-05-25T14:23:11.873Z,19.09
2023-05-25T14:25:42.278Z,19.45
2023-05-25T14:28:10.667Z,20.03
2023-05-25T14:30:40.490Z,19.83
2023-05-25T14:33:13.978Z,19.46
2023-05-25T14:35:42.958Z,19.46
2023-05-25T14:38:11.912Z,19.13
2023-05-25T14:40:40.159Z,18.65
2023-05-25T14:43:08.475Z,18.33
2023-05-25T14:45:36.781Z,18.38
2023-05-25T14:48:16.668Z,18.21
2023-05-25T14:50:45.865Z,18.45
2023-05-25T14:53:14.164Z,17.77
2023-05-25T14:55:42.604Z,17.56
2023-05-25T14:58:11.151Z,17.45
2023-05-25T15:00:39.387Z,17.34
2023-05-25T15:03:09.157Z,17.39
2023-05-25T15:05:37.471Z,17.89
2023-05-25T15:08:05.788Z,18.25
2023-05-25T15:10:34.172Z,18.72
2023-05-25T15:13:02.451Z,18.68
2023-05-25T15:15:30.816Z,18.72
2023-05-25T15:17:59.097Z,18.92
2023-05-25T15:20:28.951Z,18.99
2023-05-25T15:22:57.230Z,18.46
2023-05-25T15:27:59.766Z,18.65
2023-05-25T15:30:28.427Z,19.12
2023-05-25T15:32:56.795Z,19.05
2023-05-25T15:35:30.966Z,19.41
2023-05-25T15:38:01.222Z,19.13
2023-05-25T15:40:29.777Z,19.29
2023-05-25T15:42:58.110Z,18.76
2023-05-25T15:45:26.793Z,18.42
2023-05-25T15:47:55.574Z,18.73
2023-05-25T15:50:23.908Z,18.45
2023-05-25T15:52:52.210Z,18.55
2023-05-25T15:55:22.204Z,18.19
2023-05-25T15:57:50.533Z,17.86
2023-05-25T16:00:19.604Z,17.96
2023-05-25T16:02:47.867Z,18.38
2023-05-25T16:05:16.321Z,18.49
2023-05-25T16:07:44.592Z,18.22
2023-05-25T16:10:12.972Z,17.75
2023-05-25T16:12:42.581Z,17.66
2023-05-25T16:15:11.446Z,17.25
2023-05-25T16:17:39.689Z,17.37
2023-05-25T16:20:10.593Z,17.41
2023-05-25T16:22:38.862Z,17.54
2023-05-25T16:25:08.664Z,17.43
2023-05-25T16:27:37.065Z,17.23
2023-05-25T16:30:10.535Z,17.60
2023-05-25T16:32:40.052Z,17.74
2023-05-25T16:35:09.390Z,17.59
2023-05-25T16:37:37.700Z,17.50
2023-05-25T16:40:07.069Z,17.33
2023-05-25T16:42:35.643Z,17.29
2023-05-25T16:45:04.123Z,16.92
2023-05-25T16:47:33.821Z,16.89
2023-05-25T16:50:02.129Z,16.80
2023-05-25T16:52:30.407Z,16.17
2023-05-25T16:54:59.284Z,15.67
2023-05-25T16:57:27.727Z,16.01
2023-05-25T16:59:56.015Z,15.91
2023-05-25T17:02:24.461Z,15.55
2023-05-25T17:04:54.126Z,15.83
2023-05-25T17:07:22.459Z,15.79
2023-05-25T17:09:50.891Z,15.86
2023-05-25T17:12:19.173Z,15.68
2023-05-25T17:14:47.301Z,15.82
2023-05-25T17:17:16.521Z,15.51
2023-05-25T17:19:44.897Z,15.32
2023-05-25T17:22:14.621Z,15.00
2023-05-25T17:24:42.967Z,14.85
2023-05-25T17:27:11.291Z,14.52
2023-05-25T17:29:39.736Z,14.83
2023-05-25T17:32:08.296Z,14.62
2023-05-25T17:34:36.677Z,14.42
2023-05-25T17:37:05.209Z,14.88
2023-05-25T17:39:35.036Z,14.65
2023-05-25T17:42:03.725Z,14.03
2023-05-25T17:44:32.235Z,14.11
2023-05-25T17:47:00.594Z,14.20
2023-05-25T17:49:28.899Z,14.37
2023-05-25T17:51:57.072Z,13.67
2023-05-25T17:54:27.323Z,14.17
2023-05-25T17:56:57.400Z,13.83
2023-05-25T17:59:25.808Z,13.50
2023-05-25T18:01:54.034Z,13.51
2023-05-25T18:04:22.342Z,13.46
2023-05-25T18:06:51.867Z,13.69
2023-05-25T18:09:20.462Z,13.45
2023-05-25T18:11:49.053Z,13.24
2023-05-25T18:14:18.880Z,13.19
2023-05-25T18:16:47.171Z,13.03
2023-05-25T18:19:17.854Z,12.85
2023-05-25T18:21:46.168Z,12.79
2023-05-25T18:24:14.588Z,12.52
2023-05-25T18:26:42.757Z,12.42
2023-05-25T18:29:11.051Z,12.45
2023-05-25T18:31:45.652Z,12.30
2023-05-25T18:34:14.441Z,11.81
2023-05-25T18:36:42.691Z,11.91
2023-05-25T18:39:11.278Z,12.09
2023-05-25T18:41:41.885Z,12.03
2023-05-25T18:44:10.275Z,11.79
2023-05-25T18:46:42.289Z,11.72
2023-05-25T18:49:10.872Z,11.53
2023-05-25T18:51:39.587Z,11.63
2023-05-25T18:54:07.854Z,11.42
2023-05-25T18:56:36.497Z,11.22
2023-05-25T18:59:04.889Z,11.28
2023-05-25T19:01:33.148Z,11.13
2023-05-25T19:04:03.185Z,10.90
2023-05-25T19:06:32.452Z,10.76
2023-05-25T19:09:00.867Z,10.76
2023-05-25T19:11:29.344Z,10.74
2023-05-25T19:13:57.638Z,10.94
2023-05-25T19:16:25.889Z,10.98
2023-05-25T19:18:54.217Z,10.82
2023-05-25T19:21:26.778Z,10.62
2023-05-25T19:23:56.293Z,10.34
2023-05-25T19:26:24.705Z,10.11
2023-05-25T19:28:53.105Z,10.33
2023-05-25T19:31:23.426Z,10.17
2023-05-25T19:33:52.113Z,10.14
2023-05-25T19:36:21.121Z,10.02
2023-05-25T19:38:51.010Z,10.11
2023-05-25T19:41:19.371Z,10.13
2023-05-25T19:43:48.399Z,10.03
2023-05-25T19:46:16.960Z,9.98
2023-05-25T19:48:45.357Z,9.98
2023-05-25T19:51:13.596Z,9.82
2023-05-25T19:53:42.100Z,9.71
2023-05-25T19:56:11.634Z,9.40
2023-05-25T19:58:39.904Z,9.80
2023-05-25T20:01:08.257Z,9.72
2023-05-25T20:03:36.832Z,9.79
2023-05-25T20:06:06.066Z,9.69
2023-05-25T20:08:34.610Z,9.50
2023-05-25T20:11:02.921Z,9.29
2023-05-25T20:13:32.708Z,9.29
2023-05-25T20:16:01.024Z,9.28
2023-05-25T20:18:29.306Z,9.22
2023-05-25T20:20:57.622Z,9.39
2023-05-25T20:23:25.836Z,9.24
2023-05-25T20:25:54.089Z,9.14
2023-05-25T20:28:22.464Z,9.01
2023-05-25T20:30:52.598Z,9.03
2023-05-25T20:33:21.759Z,8.93
2023-05-25T20:35:50.058Z,8.87
2023-05-25T20:38:18.298Z,8.56
2023-05-25T20:40:47.057Z,8.86
2023-05-25T20:43:15.396Z,8.80
2023-05-25T20:45:44.122Z,8.83
2023-05-25T20:48:14.790Z,8.77
2023-05-25T20:50:43.183Z,8.87
2023-05-25T20:53:11.777Z,8.75
2023-05-25T20:55:40.079Z,8.61
2023-05-25T20:58:08.614Z,8.28
2023-05-25T21:00:36.998Z,7.97
2023-05-25T21:03:08.432Z,8.28
2023-05-25T21:05:38.630Z,8.44
2023-05-25T21:08:06.863Z,8.22
2023-05-25T21:10:35.201Z,8.33
2023-05-25T21:13:03.672Z,8.37
2023-05-25T21:15:32.862Z,8.10
2023-05-25T21:18:03.791Z,8.26
2023-05-25T21:20:33.472Z,8.30
2023-05-25T21:23:03.418Z,8.45
2023-05-25T21:25:32.076Z,8.13
2023-05-25T21:28:00.333Z,8.19
2023-05-25T21:30:28.992Z,8.19
2023-05-25T21:32:57.569Z,7.56
2023-05-25T21:35:25.876Z,8.05
2023-05-25T21:37:54.337Z,7.92
2023-05-25T21:40:24.150Z,7.79
2023-05-25T21:42:54.423Z,7.94
2023-05-25T21:45:22.913Z,7.89
2023-05-25T21:47:51.436Z,7.69
2023-05-25T21:50:20.074Z,7.67
2023-05-25T21:52:49.527Z,7.68
2023-05-25T21:55:17.878Z,7.72
2023-05-25T21:57:47.464Z,7.56
2023-05-25T22:00:17.697Z,7.59
2023-05-25T22:02:46.025Z,7.74
2023-05-25T22:05:15.700Z,7.82
2023-05-25T22:07:44.088Z,7.54
2023-05-25T22:10:12.613Z,7.76
2023-05-25T22:12:40.878Z,7.01
2023-05-25T22:15:11.481Z,7.28
2023-05-25T22:17:39.842Z,7.54
2023-05-25T22:20:09.731Z,7.62
2023-05-25T22:22:38.151Z,7.37
2023-05-25T22:25:07.798Z,7.40
2023-05-25T22:27:36.020Z,7.54
2023-05-25T22:30:04.712Z,7.48
2023-05-25T22:32:35.158Z,6.91
2023-05-25T22:35:03.716Z,7.36
2023-05-25T22:37:32.037Z,7.25
2023-05-25T22:40:00.485Z,7.14
2023-05-25T22:42:28.829Z,7.30
2023-05-25T22:44:57.268Z,7.16
2023-05-25T22:47:27.060Z,7.26
2023-05-25T22:49:57.047Z,7.21
2023-05-25T22:52:25.383Z,7.21
2023-05-25T22:54:53.724Z,7.19
2023-05-25T22:57:22.021Z,7.06
2023-05-25T22:59:50.775Z,6.77
2023-05-25T23:02:19.069Z,6.78
2023-05-25T23:04:47.667Z,6.86
2023-05-25T23:07:17.300Z,6.78
2023-05-25T23:09:46.805Z,6.42
2023-05-25T23:12:15.143Z,6.72
2023-05-25T23:14:44.498Z,6.66
2023-05-25T23:17:12.973Z,6.74
2023-05-25T23:19:41.323Z,6.74
2023-05-25T23:22:09.663Z,6.51
2023-05-25T23:24:40.432Z,6.22
2023-05-25T23:27:09.040Z,6.53
2023-05-25T23:29:37.367Z,6.63
2023-05-25T23:32:06.835Z,6.48
2023-05-25T23:34:35.270Z,6.43
2023-05-25T23:37:06.432Z,6.17
2023-05-25T23:39:35.007Z,6.32
2023-05-25T23:42:04.930Z,6.04
2023-05-25T23:44:33.265Z,6.35
2023-05-25T23:47:01.510Z,6.38
2023-05-25T23:49:29.873Z,6.26
2023-05-25T23:51:58.107Z,6.39
2023-05-25T23:54:26.449Z,5.95
2023-05-25T23:56:54.740Z,6.10
2023-05-25T23:59:24.715Z,6.25
